Time;durP1;ratioP1;P1;durP2;ratioP2;P2;SDS_P1;SDS_P2;PMS_P1;PMS_P2;Temp;Humidity;BMP_temperature;BMP_pressure;BME280_temperature;BME280_humidity;BME280_pressure;Samples;Min_cycle;Max_cycle;Signal;HPM_P1;HPM_P2
2022/03/11 00:01:15;;;;;;;3.43;3.13;;;5.30;99.90;;;;;;4927380;29;20111;-77
2022/03/11 00:03:41;;;;;;;7.50;4.78;;;5.30;99.90;;;;;;4926670;29;20122;-77
2022/03/11 00:06:07;;;;;;;9.20;6.18;;;5.30;99.90;;;;;;4926787;29;20136;-77
2022/03/11 00:08:32;;;;;;;10.40;5.50;;;5.30;99.90;;;;;;4925920;29;20056;-77
2022/03/11 00:10:58;;;;;;;6.15;4.82;;;5.30;99.90;;;;;;4925558;29;20061;-77
2022/03/11 00:13:24;;;;;;;4.85;4.45;;;5.30;99.90;;;;;;4925811;29;20058;-77
2022/03/11 00:15:50;;;;;;;7.25;4.72;;;5.20;99.90;;;;;;4925290;29;20130;-77
2022/03/11 00:18:16;;;;;;;6.67;5.00;;;5.20;99.90;;;;;;4941760;28;20126;-77
2022/03/11 00:20:42;;;;;;;6.63;5.22;;;5.20;99.90;;;;;;4926148;29;20039;-77
2022/03/11 00:23:07;;;;;;;6.78;3.53;;;5.20;99.90;;;;;;4926709;29;20055;-77
2022/03/11 00:25:34;;;;;;;6.10;5.10;;;5.20;99.90;;;;;;4941755;29;20138;-77
2022/03/11 00:27:59;;;;;;;6.53;4.47;;;5.20;99.90;;;;;;4925086;29;20048;-77
2022/03/11 00:30:28;;;;;;;7.43;5.17;;;5.20;99.90;;;;;;4926795;29;20069;-77
2022/03/11 00:32:54;;;;;;;5.13;4.63;;;5.20;99.90;;;;;;4925176;29;20515;-77
2022/03/11 00:35:21;;;;;;;8.35;4.78;;;5.20;99.90;;;;;;4926130;29;20075;-77
2022/03/11 00:37:47;;;;;;;5.60;4.90;;;5.10;99.90;;;;;;4924978;29;20122;-77
2022/03/11 00:40:13;;;;;;;5.50;4.97;;;5.10;99.90;;;;;;4926869;29;20106;-77
2022/03/11 00:42:41;;;;;;;11.37;4.47;;;5.10;99.90;;;;;;4925389;29;20047;-77
2022/03/11 00:45:07;;;;;;;6.10;5.47;;;5.10;99.90;;;;;;4925918;29;20039;-77
2022/03/11 00:47:33;;;;;;;6.00;5.18;;;5.10;99.90;;;;;;4926472;29;20079;-77
2022/03/11 00:49:59;;;;;;;6.88;5.75;;;5.00;99.90;;;;;;4940911;29;20087;-77
2022/03/11 00:52:24;;;;;;;7.68;4.97;;;5.00;99.90;;;;;;4924980;29;20040;-77
2022/03/11 00:54:50;;;;;;;5.07;4.67;;;5.00;99.90;;;;;;4926028;29;20051;-77
2022/03/11 00:57:16;;;;;;;5.28;4.85;;;5.00;99.90;;;;;;4925562;29;20301;-77
2022/03/11 00:59:42;;;;;;;5.82;4.90;;;5.00;99.90;;;;;;4924708;29;20051;-77
2022/03/11 01:02:08;;;;;;;7.00;6.38;;;4.90;99.90;;;;;;4926145;29;20055;-77
2022/03/11 01:04:33;;;;;;;9.32;5.15;;;4.90;99.90;;;;;;4940757;29;20071;-77
2022/03/11 01:06:59;;;;;;;4.63;4.32;;;4.90;99.90;;;;;;4925801;29;20126;-77
2022/03/11 01:09:26;;;;;;;6.93;4.23;;;4.90;99.90;;;;;;4926214;29;20048;-77
2022/03/11 01:11:52;;;;;;;5.35;4.78;;;4.90;99.90;;;;;;4925207;29;20082;-77
2022/03/11 01:14:17;;;;;;;4.33;3.87;;;4.90;99.90;;;;;;4925277;29;20040;-77
2022/03/11 01:16:43;;;;;;;9.93;4.50;;;4.90;99.90;;;;;;4926595;29;20070;-77
2022/03/11 01:19:09;;;;;;;6.10;5.60;;;4.80;99.90;;;;;;4923988;29;20419;-77
2022/03/11 01:21:34;;;;;;;11.17;6.10;;;4.90;99.90;;;;;;4926219;29;20054;-77
2022/03/11 01:24:00;;;;;;;8.50;6.17;;;4.80;99.90;;;;;;4924181;29;20130;-77
2022/03/11 01:26:25;;;;;;;8.23;4.90;;;4.80;99.90;;;;;;4925634;29;20138;-77
2022/03/11 01:28:52;;;;;;;10.30;5.03;;;4.80;99.90;;;;;;4923868;29;20044;-77
2022/03/11 01:31:18;;;;;;;7.70;5.63;;;4.80;99.90;;;;;;4925746;29;20086;-77
2022/03/11 01:33:44;;;;;;;4.30;4.00;;;4.80;99.90;;;;;;4926649;29;20063;-77
2022/03/11 01:36:11;;;;;;;6.13;4.73;;;4.80;99.90;;;;;;4940525;28;20043;-77
2022/03/11 01:38:37;;;;;;;10.20;4.97;;;4.80;99.90;;;;;;4925410;29;20130;-77
2022/03/11 01:41:03;;;;;;;8.77;5.13;;;4.80;99.90;;;;;;4925479;29;20067;-77
2022/03/11 01:43:30;;;;;;;8.00;5.67;;;4.80;99.90;;;;;;4925025;28;20075;-77
2022/03/11 01:45:59;;;;;;;8.93;4.60;;;4.80;99.90;;;;;;4924816;29;20057;-77
2022/03/11 01:48:25;;;;;;;6.07;5.40;;;4.80;99.90;;;;;;4925602;29;20047;-77
2022/03/11 01:50:51;;;;;;;8.20;4.47;;;4.70;99.90;;;;;;4925269;29;20040;-77
2022/03/11 01:53:17;;;;;;;11.60;4.20;;;4.70;99.90;;;;;;4925080;29;20087;-77
2022/03/11 01:55:44;;;;;;;6.60;4.03;;;4.70;99.90;;;;;;4924531;29;20043;-77
2022/03/11 01:58:11;;;;;;;5.17;4.67;;;4.70;99.90;;;;;;4923694;29;20494;-77
2022/03/11 02:00:39;;;;;;;6.97;4.77;;;4.70;99.90;;;;;;4925546;29;20055;-77
2022/03/11 02:05:34;;;;;;;3.73;3.40;;;4.70;99.90;;;;;;4947178;23;20133;-77
2022/03/11 02:08:00;;;;;;;4.90;4.57;;;4.70;99.90;;;;;;4944591;28;20074;-77
2022/03/11 02:10:26;;;;;;;5.87;5.00;;;4.70;99.90;;;;;;4943070;28;20481;-77
2022/03/11 02:12:52;;;;;;;5.10;4.30;;;4.70;99.90;;;;;;4943768;28;20446;-77
2022/03/11 02:15:17;;;;;;;10.73;5.53;;;4.70;99.90;;;;;;4943685;28;20059;-77
2022/03/11 02:17:43;;;;;;;5.07;4.27;;;4.70;99.90;;;;;;4939177;28;20514;-77
2022/03/11 02:20:09;;;;;;;5.90;4.67;;;4.70;99.90;;;;;;4908334;29;20099;-77
2022/03/11 02:22:38;;;;;;;5.40;4.33;;;4.70;99.90;;;;;;4925053;29;20075;-77
2022/03/11 02:25:08;;;;;;;6.60;5.10;;;4.60;99.90;;;;;;4924281;29;20912;-77
2022/03/11 02:27:42;;;;;;;4.90;3.90;;;4.60;99.90;;;;;;4926668;29;20039;-77
2022/03/11 02:30:13;;;;;;;5.73;4.17;;;4.60;99.90;;;;;;4928945;29;20043;-77
2022/03/11 02:32:39;;;;;;;8.77;5.97;;;4.60;99.90;;;;;;4927613;29;20106;-77
2022/03/11 02:35:05;;;;;;;2.10;2.00;;;4.60;99.90;;;;;;4928333;29;20048;-77
2022/03/11 02:37:31;;;;;;;4.57;3.63;;;4.60;99.90;;;;;;4929188;29;20048;-77
2022/03/11 02:39:57;;;;;;;5.40;4.87;;;4.60;99.90;;;;;;4928563;29;20454;-77
2022/03/11 02:42:22;;;;;;;6.10;5.07;;;4.50;99.90;;;;;;4928588;29;20134;-76
2022/03/11 02:44:48;;;;;;;6.10;4.30;;;4.50;99.90;;;;;;4946427;28;20083;-76
2022/03/11 02:47:13;;;;;;;13.23;5.00;;;4.50;99.90;;;;;;4947566;28;20097;-77
2022/03/11 02:49:39;;;;;;;6.77;3.10;;;4.50;99.90;;;;;;4947792;28;20043;-77
2022/03/11 02:52:05;;;;;;;3.83;2.93;;;4.50;99.90;;;;;;4947609;28;20044;-76
2022/03/11 02:54:30;;;;;;;5.80;4.63;;;4.50;99.90;;;;;;4947540;28;20042;-77
2022/03/11 02:56:56;;;;;;;5.00;3.97;;;4.50;99.90;;;;;;4946162;28;20051;-77
2022/03/11 02:59:22;;;;;;;4.73;4.23;;;4.50;99.90;;;;;;4946910;28;20043;-77
2022/03/11 03:01:47;;;;;;;4.00;3.80;;;4.40;99.90;;;;;;4946028;28;20055;-77
2022/03/11 03:04:13;;;;;;;3.50;3.20;;;4.50;99.90;;;;;;4947301;28;20469;-77
2022/03/11 03:06:39;;;;;;;8.97;4.80;;;4.40;99.90;;;;;;4945722;28;20086;-77
2022/03/11 03:09:04;;;;;;;4.70;3.87;;;4.40;99.90;;;;;;4946275;28;20455;-77
2022/03/11 03:11:30;;;;;;;5.37;4.23;;;4.40;99.90;;;;;;4946001;28;20079;-77
2022/03/11 03:13:56;;;;;;;7.63;4.40;;;4.40;99.90;;;;;;4931391;28;20043;-77
2022/03/11 03:16:21;;;;;;;5.70;4.50;;;4.40;99.90;;;;;;4928354;29;20534;-77
2022/03/11 03:18:47;;;;;;;4.60;4.17;;;4.40;99.90;;;;;;4926753;29;20047;-76
2022/03/11 03:21:13;;;;;;;4.40;3.47;;;4.40;99.90;;;;;;4911208;29;20510;-77
2022/03/11 03:23:38;;;;;;;3.73;3.43;;;4.40;99.90;;;;;;4940042;28;20106;-77
2022/03/11 03:26:04;;;;;;;4.93;4.30;;;4.40;99.90;;;;;;4945697;28;20338;-77
2022/03/11 03:28:29;;;;;;;3.87;3.63;;;4.30;99.90;;;;;;4946267;28;20042;-77
2022/03/11 03:30:55;;;;;;;8.70;3.97;;;4.30;99.90;;;;;;4947056;28;20050;-77
2022/03/11 03:33:20;;;;;;;4.63;4.13;;;4.30;99.90;;;;;;4946567;28;20074;-77
2022/03/11 03:35:46;;;;;;;6.70;4.00;;;4.30;99.90;;;;;;4947143;28;20039;-77
2022/03/11 03:38:12;;;;;;;7.37;3.70;;;4.30;99.90;;;;;;4945083;28;20259;-78
2022/03/11 03:40:37;;;;;;;4.47;2.87;;;4.30;99.90;;;;;;4946395;28;20043;-77
2022/03/11 03:43:03;;;;;;;5.30;4.90;;;4.30;99.90;;;;;;4945780;28;20074;-76
2022/03/11 03:45:30;;;;;;;5.23;4.73;;;4.30;99.90;;;;;;4946259;28;20446;-77
2022/03/11 03:47:56;;;;;;;4.83;3.53;;;4.20;99.90;;;;;;4944305;28;20058;-77
2022/03/11 03:50:21;;;;;;;5.27;4.77;;;4.20;99.90;;;;;;4947227;28;20047;-77
2022/03/11 03:52:47;;;;;;;4.63;3.67;;;4.20;99.90;;;;;;4946056;28;20148;-77
2022/03/11 03:55:12;;;;;;;5.10;4.10;;;4.20;99.90;;;;;;4947239;28;20505;-77
2022/03/11 03:57:38;;;;;;;7.43;5.63;;;4.20;99.90;;;;;;4944565;28;20051;-77
2022/03/11 04:00:06;;;;;;;6.27;4.63;;;4.20;99.90;;;;;;4946020;28;20457;-77
2022/03/11 04:02:32;;;;;;;6.83;5.33;;;4.20;99.90;;;;;;4945933;28;20058;-77
2022/03/11 04:04:58;;;;;;;4.43;4.13;;;4.10;99.90;;;;;;4946071;28;20055;-77
2022/03/11 04:07:24;;;;;;;9.63;4.97;;;4.10;99.90;;;;;;4946179;28;20043;-77
2022/03/11 04:09:49;;;;;;;7.67;4.63;;;4.10;99.90;;;;;;4928670;28;20055;-77
2022/03/11 04:12:15;;;;;;;5.00;4.50;;;4.10;99.90;;;;;;4926159;29;20066;-76
2022/03/11 04:14:41;;;;;;;4.90;4.43;;;4.10;99.90;;;;;;4927349;29;20040;-77
2022/03/11 04:17:06;;;;;;;4.20;3.87;;;4.10;99.90;;;;;;4926922;29;20058;-76
2022/03/11 04:19:32;;;;;;;4.43;4.00;;;4.00;99.90;;;;;;4925655;29;20038;-77
2022/03/11 04:21:58;;;;;;;6.67;5.00;;;4.00;99.90;;;;;;4926948;29;20050;-77
2022/03/11 04:24:23;;;;;;;4.47;3.73;;;4.00;99.90;;;;;;4927095;29;20562;-77
2022/03/11 04:26:49;;;;;;;5.47;4.97;;;4.00;99.90;;;;;;4926343;29;20123;-77
2022/03/11 04:29:15;;;;;;;5.43;4.07;;;4.00;99.90;;;;;;4926194;29;20521;-76
2022/03/11 04:31:41;;;;;;;9.80;5.43;;;4.00;99.90;;;;;;4925596;29;20541;-77
2022/03/11 04:34:06;;;;;;;5.10;4.67;;;4.00;99.90;;;;;;4935725;28;20083;-77
2022/03/11 04:36:38;;;;;;;7.20;5.20;;;3.90;99.90;;;;;;4946188;28;20102;-77
2022/03/11 04:39:07;;;;;;;10.00;4.57;;;3.90;99.90;;;;;;4945523;28;20058;-77
2022/03/11 04:41:36;;;;;;;8.90;6.53;;;3.90;99.90;;;;;;4945894;28;20046;-76
2022/03/11 04:44:03;;;;;;;6.07;4.93;;;3.90;99.90;;;;;;4928614;28;20044;-77
2022/03/11 04:46:29;;;;;;;5.67;5.17;;;3.90;99.90;;;;;;4944296;28;20477;-77
2022/03/11 04:48:54;;;;;;;10.77;4.20;;;3.90;99.90;;;;;;4943704;28;20071;-77
2022/03/11 04:51:22;;;;;;;20.60;4.33;;;3.90;99.90;;;;;;4944080;28;20489;-76
2022/03/11 04:53:49;;;;;;;7.93;5.77;;;3.80;99.90;;;;;;4944064;28;20630;-77
2022/03/11 04:56:15;;;;;;;9.73;4.97;;;3.80;99.90;;;;;;4945483;28;20047;-77
2022/03/11 04:58:41;;;;;;;7.83;5.47;;;3.80;99.90;;;;;;4945109;28;20501;-77
2022/03/11 05:01:07;;;;;;;12.90;6.23;;;3.80;99.90;;;;;;4944935;28;20058;-77
2022/03/11 05:03:33;;;;;;;3.90;3.20;;;3.80;99.90;;;;;;4945252;28;20074;-77
2022/03/11 05:05:59;;;;;;;6.67;6.10;;;3.80;99.90;;;;;;4944035;28;20430;-77
2022/03/11 05:08:24;;;;;;;6.00;5.40;;;3.80;99.90;;;;;;4944721;28;20178;-77
2022/03/11 05:10:50;;;;;;;7.03;6.47;;;3.80;99.90;;;;;;4943575;28;20046;-77
2022/03/11 05:13:16;;;;;;;7.07;5.70;;;3.80;99.90;;;;;;4943133;28;20237;-77
2022/03/11 05:15:42;;;;;;;4.23;3.40;;;3.70;99.90;;;;;;4944476;28;20505;-77
2022/03/11 05:18:08;;;;;;;7.20;5.67;;;3.70;99.90;;;;;;4945183;28;20039;-77
2022/03/11 05:20:35;;;;;;;8.17;6.47;;;3.70;99.90;;;;;;4943579;28;20517;-77
2022/03/11 05:23:01;;;;;;;7.03;5.43;;;3.70;99.90;;;;;;4944721;28;20055;-76
2022/03/11 05:25:27;;;;;;;6.10;5.60;;;3.70;99.90;;;;;;4943997;28;20055;-76
2022/03/11 05:27:52;;;;;;;7.57;5.40;;;3.70;99.90;;;;;;4942668;28;20422;-77
2022/03/11 05:30:18;;;;;;;10.07;6.30;;;3.70;99.90;;;;;;4945233;28;20102;-77
2022/03/11 05:32:46;;;;;;;6.80;6.03;;;3.70;99.90;;;;;;4944848;28;20043;-77
2022/03/11 05:35:12;;;;;;;4.97;4.10;;;3.70;99.90;;;;;;4925852;29;20360;-77
2022/03/11 05:37:38;;;;;;;5.30;4.80;;;3.60;99.90;;;;;;4908878;29;20062;-77
2022/03/11 05:40:04;;;;;;;6.33;5.83;;;3.60;99.90;;;;;;4925576;29;20740;-77
2022/03/11 05:42:30;;;;;;;6.87;6.03;;;3.60;99.90;;;;;;4925074;29;20717;-77
2022/03/11 05:44:56;;;;;;;6.63;5.53;;;3.60;99.90;;;;;;4934191;28;20049;-77
2022/03/11 05:47:21;;;;;;;10.37;6.70;;;3.60;99.90;;;;;;4945016;28;20114;-77
2022/03/11 05:49:47;;;;;;;9.63;5.97;;;3.60;99.90;;;;;;4942494;28;20098;-77
2022/03/11 05:52:13;;;;;;;9.23;6.50;;;3.60;99.90;;;;;;4945131;28;20070;-77
2022/03/11 05:54:38;;;;;;;6.13;5.57;;;3.60;99.90;;;;;;4942404;28;20047;-77
2022/03/11 05:57:05;;;;;;;6.40;5.67;;;3.60;99.90;;;;;;4943616;28;20414;-77
2022/03/11 05:59:32;;;;;;;8.33;6.13;;;3.50;99.90;;;;;;4939548;28;20061;-77
2022/03/11 06:01:57;;;;;;;6.43;5.80;;;3.50;99.90;;;;;;4947485;28;20110;-77
2022/03/11 06:04:23;;;;;;;5.47;4.93;;;3.50;99.90;;;;;;4933898;28;20059;-77
2022/03/11 06:06:49;;;;;;;7.97;6.20;;;3.50;99.90;;;;;;4929372;29;20044;-77
2022/03/11 06:09:14;;;;;;;17.00;7.67;;;3.50;99.90;;;;;;4928393;28;20043;-77
2022/03/11 06:11:40;;;;;;;9.03;7.27;;;3.50;99.90;;;;;;4936519;28;20039;-77
2022/03/11 06:14:06;;;;;;;8.53;6.67;;;3.50;99.90;;;;;;4945811;28;20146;-77
2022/03/11 06:16:33;;;;;;;6.23;5.37;;;3.50;99.90;;;;;;4946904;28;20047;-77
2022/03/11 06:18:58;;;;;;;7.37;6.77;;;3.40;99.90;;;;;;4942108;28;20043;-77
2022/03/11 06:21:24;;;;;;;7.27;6.67;;;3.40;99.90;;;;;;4945954;28;20035;-78
2022/03/11 06:23:49;;;;;;;8.87;5.43;;;3.40;99.90;;;;;;4930735;28;20063;-77
2022/03/11 06:26:15;;;;;;;6.23;5.63;;;3.40;99.90;;;;;;4947686;28;20125;-77
2022/03/11 06:28:40;;;;;;;6.60;6.03;;;3.40;99.90;;;;;;4947403;28;20091;-77
2022/03/11 06:31:08;;;;;;;9.10;7.07;;;3.40;99.90;;;;;;4930312;28;20055;-77
2022/03/11 06:33:34;;;;;;;10.93;5.30;;;3.40;99.90;;;;;;4939131;28;20043;-78
2022/03/11 06:35:59;;;;;;;23.20;6.53;;;3.40;99.90;;;;;;4941322;28;20047;-78
2022/03/11 06:38:25;;;;;;;6.07;5.43;;;3.40;99.90;;;;;;4929376;28;20039;-77
2022/03/11 06:40:50;;;;;;;7.77;7.00;;;3.40;99.90;;;;;;4928372;29;20048;-77
2022/03/11 06:43:20;;;;;;;8.10;5.87;;;3.40;99.90;;;;;;4926857;28;20439;-78
2022/03/11 06:45:46;;;;;;;9.37;7.77;;;3.40;99.90;;;;;;4937629;28;20141;-80
2022/03/11 06:48:11;;;;;;;9.97;7.50;;;3.40;99.90;;;;;;4935977;28;20539;-84
2022/03/11 06:50:37;;;;;;;6.17;5.30;;;3.40;99.90;;;;;;4944747;28;20055;-78
2022/03/11 06:53:02;;;;;;;13.30;7.90;;;3.40;99.90;;;;;;4935476;28;20070;-77
2022/03/11 06:55:28;;;;;;;12.07;7.63;;;3.40;99.90;;;;;;4941631;28;20610;-77
2022/03/11 06:57:54;;;;;;;7.73;5.87;;;3.50;99.90;;;;;;4930009;28;20070;-83
2022/03/11 07:00:20;;;;;;;11.83;6.13;;;3.50;99.90;;;;;;4915417;29;20475;-81
2022/03/11 07:02:45;;;;;;;11.30;6.07;;;3.40;99.90;;;;;;4927015;29;20054;-82
2022/03/11 07:05:11;;;;;;;7.10;6.20;;;3.40;99.90;;;;;;4938385;29;20066;-76
2022/03/11 07:07:37;;;;;;;7.80;6.27;;;3.50;99.90;;;;;;4948009;28;20103;-79
2022/03/11 07:10:06;;;;;;;9.93;8.40;;;3.50;99.90;;;;;;4946020;29;20044;-79
2022/03/11 07:12:32;;;;;;;6.60;5.97;;;3.50;99.90;;;;;;4944600;28;20051;-79
2022/03/11 07:15:01;;;;;;;8.73;6.50;;;3.50;99.90;;;;;;4942915;28;20551;-81
2022/03/11 07:17:27;;;;;;;10.60;8.73;;;3.50;99.90;;;;;;4946609;28;20047;-80
2022/03/11 07:19:53;;;;;;;14.53;8.10;;;3.60;99.90;;;;;;4932939;28;20039;-80
2022/03/11 07:22:18;;;;;;;14.73;6.67;;;3.60;99.90;;;;;;4946128;28;20502;-79
2022/03/11 07:24:45;;;;;;;9.47;8.57;;;3.60;99.90;;;;;;4945899;28;20055;-80
2022/03/11 07:27:11;;;;;;;11.80;6.90;;;3.60;99.90;;;;;;4946412;28;20493;-80
2022/03/11 07:29:36;;;;;;;7.23;6.43;;;3.60;99.90;;;;;;4946850;28;20051;-80
2022/03/11 07:32:03;;;;;;;10.17;7.70;;;3.60;99.90;;;;;;4944457;28;20565;-79
2022/03/11 07:34:28;;;;;;;10.03;9.03;;;3.60;99.90;;;;;;4946656;28;20090;-80
2022/03/11 07:36:54;;;;;;;9.97;6.67;;;3.70;99.90;;;;;;4944968;28;20736;-80
2022/03/11 07:39:20;;;;;;;10.27;6.77;;;3.70;99.90;;;;;;4944991;28;20066;-79
2022/03/11 07:41:45;;;;;;;12.13;8.07;;;3.70;99.90;;;;;;4927122;29;20342;-79
2022/03/11 07:44:12;;;;;;;12.80;7.33;;;3.70;99.90;;;;;;4930503;29;20047;-79
2022/03/11 07:46:38;;;;;;;9.13;7.53;;;3.70;99.90;;;;;;4934278;28;20454;-79
2022/03/11 07:49:04;;;;;;;9.87;7.57;;;3.80;99.90;;;;;;4927345;29;20156;-79
2022/03/11 07:51:30;;;;;;;12.27;7.83;;;3.80;99.90;;;;;;4926174;29;20052;-79
2022/03/11 07:53:56;;;;;;;9.70;5.67;;;3.80;99.90;;;;;;4927292;29;20483;-80
2022/03/11 07:56:22;;;;;;;9.60;5.90;;;3.80;99.90;;;;;;4935013;28;20039;-80
2022/03/11 07:58:47;;;;;;;13.40;6.37;;;3.90;99.90;;;;;;4945214;28;20043;-79
2022/03/11 08:01:13;;;;;;;6.83;6.30;;;3.90;99.90;;;;;;4942150;28;20047;-80
2022/03/11 08:03:44;;;;;;;7.73;7.03;;;4.00;99.90;;;;;;4927211;29;21052;-80
2022/03/11 08:06:10;;;;;;;9.70;6.07;;;4.00;99.90;;;;;;4928741;28;20054;-79
2022/03/11 08:08:36;;;;;;;6.87;6.20;;;4.00;99.90;;;;;;4928469;28;20031;-75
2022/03/11 08:11:02;;;;;;;12.60;8.03;;;4.10;99.90;;;;;;4938751;28;20059;-75
2022/03/11 08:13:28;;;;;;;7.83;4.63;;;4.10;99.90;;;;;;4926047;29;20046;-75
2022/03/11 08:15:54;;;;;;;7.03;6.33;;;4.20;99.90;;;;;;4932385;28;20043;-75
2022/03/11 08:18:20;;;;;;;8.27;7.53;;;4.20;99.90;;;;;;4945432;28;20099;-75
2022/03/11 08:20:46;;;;;;;9.77;7.37;;;4.30;99.90;;;;;;4940680;28;20067;-76
2022/03/11 08:23:12;;;;;;;12.10;7.03;;;4.30;99.90;;;;;;4927575;29;20044;-75
2022/03/11 08:25:38;;;;;;;9.03;6.70;;;4.40;99.90;;;;;;4927795;29;20249;-74
2022/03/11 08:28:05;;;;;;;11.27;7.03;;;4.40;99.90;;;;;;4944389;28;20051;-74
2022/03/11 08:30:31;;;;;;;9.17;7.07;;;4.40;99.90;;;;;;4926172;28;20043;-73
2022/03/11 08:32:58;;;;;;;7.50;4.87;;;4.50;99.90;;;;;;4924762;28;20044;-73
2022/03/11 08:35:24;;;;;;;7.97;6.67;;;4.50;99.90;;;;;;4927961;28;20047;-73
2022/03/11 08:37:50;;;;;;;16.37;7.47;;;4.60;99.90;;;;;;4942884;28;20047;-73
2022/03/11 08:40:16;;;;;;;12.93;7.93;;;4.60;99.90;;;;;;4944969;28;20043;-73
2022/03/11 08:42:42;;;;;;;8.37;6.30;;;4.70;99.90;;;;;;4943621;28;20433;-73
2022/03/11 08:45:10;;;;;;;13.13;8.30;;;4.70;99.90;;;;;;4942942;28;20047;-73
2022/03/11 08:47:35;;;;;;;10.53;8.00;;;4.70;99.90;;;;;;4943933;28;20325;-73
2022/03/11 08:50:04;;;;;;;11.13;6.87;;;4.80;99.90;;;;;;4940918;28;20276;-75
2022/03/11 08:52:31;;;;;;;7.93;5.20;;;4.80;99.90;;;;;;4947024;28;20473;-74
2022/03/11 08:54:57;;;;;;;6.83;6.23;;;4.90;99.90;;;;;;4944831;28;20045;-74
2022/03/11 08:57:23;;;;;;;17.47;9.00;;;4.90;99.90;;;;;;4948037;28;20074;-75
2022/03/11 08:59:49;;;;;;;10.20;7.33;;;5.00;99.90;;;;;;4942654;28;20047;-75
2022/03/11 09:02:15;;;;;;;9.03;7.03;;;5.00;99.90;;;;;;4930070;28;20367;-74
2022/03/11 09:04:41;;;;;;;9.43;8.33;;;5.10;99.90;;;;;;4936043;28;20054;-74
2022/03/11 09:07:06;;;;;;;8.63;5.90;;;5.10;99.90;;;;;;4931907;28;20079;-74
2022/03/11 09:09:32;;;;;;;6.87;5.53;;;5.10;99.90;;;;;;4939252;28;20521;-74
2022/03/11 09:12:02;;;;;;;9.03;7.27;;;5.20;99.90;;;;;;4942003;28;20486;-75
2022/03/11 09:14:27;;;;;;;23.77;6.37;;;5.20;99.90;;;;;;4929197;28;20043;-75
2022/03/11 09:16:53;;;;;;;11.10;9.70;;;5.30;99.90;;;;;;4943686;28;20046;-75
2022/03/11 09:19:19;;;;;;;8.47;7.67;;;5.30;99.90;;;;;;4944431;28;20450;-75
2022/03/11 09:21:44;;;;;;;29.37;7.73;;;5.30;99.90;;;;;;4936633;28;20044;-75
2022/03/11 09:24:10;;;;;;;9.38;8.27;;;5.40;99.90;;;;;;4931428;28;20457;-75
2022/03/11 09:26:35;;;;;;;11.00;8.30;;;5.40;99.90;;;;;;4924754;28;20546;-75
2022/03/11 09:29:01;;;;;;;7.60;7.00;;;5.40;99.90;;;;;;4943276;28;20062;-78
2022/03/11 09:31:26;;;;;;;5.90;5.47;;;5.40;99.90;;;;;;4928054;28;20095;-77
2022/03/11 09:33:52;;;;;;;9.87;5.97;;;5.50;99.90;;;;;;4930339;28;20446;-78
2022/03/11 09:36:18;;;;;;;9.20;6.67;;;5.50;99.90;;;;;;4940273;28;20051;-77
2022/03/11 09:38:44;;;;;;;12.23;7.00;;;5.50;99.90;;;;;;4944939;28;20043;-78
2022/03/11 09:41:10;;;;;;;10.25;9.23;;;5.60;99.90;;;;;;4943180;28;20489;-76
2022/03/11 09:43:37;;;;;;;9.33;7.07;;;5.60;99.90;;;;;;4958868;28;20178;-78
2022/03/11 09:46:04;;;;;;;12.40;6.83;;;5.70;99.90;;;;;;4935934;28;20494;-77
2022/03/11 09:48:30;;;;;;;9.35;6.07;;;5.70;99.90;;;;;;4929862;28;20094;-78
2022/03/11 09:50:59;;;;;;;5.72;5.18;;;5.70;99.90;;;;;;4937957;28;20498;-79
2022/03/11 09:53:25;;;;;;;7.70;6.72;;;5.80;99.90;;;;;;4928855;28;20147;-78
2022/03/11 09:55:51;;;;;;;12.52;7.03;;;5.80;99.90;;;;;;4923748;29;20047;-78
2022/03/11 09:58:16;;;;;;;8.65;6.20;;;5.90;99.90;;;;;;4922761;29;20051;-80
2022/03/11 10:00:42;;;;;;;5.22;4.43;;;5.90;99.90;;;;;;4942158;28;20079;-80
2022/03/11 10:03:07;;;;;;;10.07;6.72;;;5.90;99.90;;;;;;4944313;28;20402;-79
2022/03/11 10:05:49;;;;;;;18.02;6.18;;;5.90;99.90;;;;;;4940952;28;20055;-78
2022/03/11 10:08:15;;;;;;;11.30;6.85;;;6.00;99.90;;;;;;4949605;28;20055;-80
2022/03/11 10:10:41;;;;;;;10.60;6.18;;;6.00;99.90;;;;;;4964102;28;20114;-79
2022/03/11 10:13:09;;;;;;;10.32;6.05;;;6.10;99.90;;;;;;4961071;28;20405;-79
2022/03/11 10:15:35;;;;;;;9.95;5.85;;;6.20;99.90;;;;;;4946823;28;20360;-79
2022/03/11 10:18:03;;;;;;;7.68;6.47;;;6.20;99.90;;;;;;4942706;28;20180;-79
2022/03/11 10:20:32;;;;;;;7.65;6.50;;;6.20;99.90;;;;;;4927201;28;20047;-80
2022/03/11 10:22:57;;;;;;;17.10;7.75;;;6.30;99.90;;;;;;4942527;28;20040;-79
2022/03/11 10:25:28;;;;;;;12.15;6.43;;;6.30;99.90;;;;;;4941638;28;20493;-79
2022/03/11 10:28:12;;;;;;;10.60;6.35;;;6.40;99.90;;;;;;4935050;28;20047;-77
2022/03/11 10:30:43;;;;;;;9.68;8.07;;;6.40;99.90;;;;;;4923824;29;20126;-78
2022/03/11 10:33:11;;;;;;;8.35;6.13;;;6.50;99.90;;;;;;4925750;29;20048;-78
2022/03/11 10:35:44;;;;;;;17.38;7.93;;;6.50;99.90;;;;;;4927109;28;20087;-79
2022/03/11 10:38:12;;;;;;;12.00;6.38;;;6.50;99.90;;;;;;4931804;28;20048;-79
2022/03/11 10:40:58;;;;;;;7.90;6.88;;;6.60;99.90;;;;;;4946461;28;20039;-79
2022/03/11 10:43:26;;;;;;;9.27;8.00;;;6.60;99.90;;;;;;4946354;28;20051;-76
2022/03/11 10:46:09;;;;;;;17.40;8.13;;;6.60;99.90;;;;;;4941816;28;20043;-75
2022/03/11 10:48:49;;;;;;;12.77;7.03;;;6.70;99.90;;;;;;4946383;28;20477;-75
2022/03/11 10:51:33;;;;;;;7.60;6.55;;;6.70;99.90;;;;;;4946010;28;20069;-74
2022/03/11 10:54:07;;;;;;;8.50;5.47;;;6.80;99.90;;;;;;4929633;28;20043;-74
2022/03/11 10:56:35;;;;;;;8.18;5.90;;;6.80;99.90;;;;;;4936961;28;20051;-74
2022/03/11 10:59:21;;;;;;;8.70;5.95;;;6.90;99.90;;;;;;4946101;28;20074;-74
2022/03/11 11:01:47;;;;;;;11.70;7.35;;;7.00;99.90;;;;;;4944787;28;20047;-74
2022/03/11 11:04:15;;;;;;;11.75;7.07;;;7.00;99.90;;;;;;4945695;28;20051;-74
2022/03/11 11:06:40;;;;;;;9.85;6.50;;;7.00;99.90;;;;;;4947141;28;20050;-74
2022/03/11 11:09:08;;;;;;;10.07;7.63;;;7.00;99.90;;;;;;4941289;28;20503;-74
2022/03/11 11:11:34;;;;;;;10.88;7.95;;;7.10;99.90;;;;;;4925057;29;20293;-74
2022/03/11 11:14:04;;;;;;;7.80;6.93;;;7.10;99.90;;;;;;4927295;29;20040;-74
2022/03/11 11:16:32;;;;;;;15.77;8.52;;;7.10;99.90;;;;;;4958882;28;20221;-74
2022/03/11 11:18:59;;;;;;;9.75;6.93;;;7.20;99.90;;;;;;4946448;28;20137;-74
2022/03/11 11:21:26;;;;;;;13.18;8.57;;;7.20;99.90;;;;;;4928346;28;20087;-74
2022/03/11 11:23:54;;;;;;;10.30;7.78;;;7.20;99.90;;;;;;4927450;29;20052;-74
2022/03/11 11:26:23;;;;;;;7.93;7.10;;;7.30;99.90;;;;;;4925550;29;20039;-75
2022/03/11 11:28:53;;;;;;;8.85;7.93;;;7.30;99.90;;;;;;4942272;28;20039;-75
2022/03/11 11:31:20;;;;;;;17.55;8.30;;;7.40;99.90;;;;;;4946624;28;20050;-75
2022/03/11 11:33:47;;;;;;;11.20;7.30;;;7.40;99.90;;;;;;4946212;28;20043;-75
2022/03/11 11:36:13;;;;;;;10.15;7.65;;;7.40;99.90;;;;;;4944114;28;20051;-75
2022/03/11 11:38:42;;;;;;;13.40;7.80;;;7.40;99.90;;;;;;4943769;28;20131;-75
2022/03/11 11:41:26;;;;;;;15.55;8.40;;;7.50;99.90;;;;;;4943946;28;20095;-76
2022/03/11 11:43:53;;;;;;;13.18;8.38;;;7.60;99.90;;;;;;4939213;28;20069;-74
2022/03/11 11:46:20;;;;;;;9.75;8.13;;;7.60;99.90;;;;;;4939355;28;20047;-74
2022/03/11 11:48:52;;;;;;;9.63;7.20;;;7.60;99.90;;;;;;4936637;28;20056;-74
2022/03/11 11:51:43;;;;;;;11.55;9.23;;;7.70;99.90;;;;;;4941782;28;20040;-74
2022/03/11 11:54:11;;;;;;;12.02;8.18;;;7.70;99.90;;;;;;4944605;28;20055;-74
2022/03/11 11:57:00;;;;;;;10.73;8.40;;;7.70;99.90;;;;;;4940682;28;20047;-74
2022/03/11 11:59:32;;;;;;;13.55;7.80;;;7.80;99.90;;;;;;4925357;29;20083;-74
2022/03/11 12:01:59;;;;;;;19.15;7.13;;;7.80;99.90;;;;;;4926355;29;20043;-74
2022/03/11 12:04:38;;;;;;;9.10;6.70;;;7.80;99.90;;;;;;4925025;29;20135;-75
2022/03/11 12:07:15;;;;;;;14.00;7.13;;;7.80;99.90;;;;;;4925840;29;20052;-74
2022/03/11 12:12:20;;;;;;;12.82;7.95;;;7.90;99.90;;;;;;4942732;28;20051;-74
2022/03/11 12:14:58;;;;;;;8.07;7.18;;;7.90;99.90;;;;;;4945086;28;20513;-74
2022/03/11 12:17:44;;;;;;;12.52;8.52;;;8.00;99.90;;;;;;4931763;28;20257;-74
2022/03/11 12:20:34;;;;;;;8.10;6.68;;;8.10;99.90;;;;;;4924476;29;20469;-74
2022/03/11 12:23:01;;;;;;;16.15;8.48;;;8.10;99.90;;;;;;4913831;29;20044;-74
2022/03/11 12:25:29;;;;;;;7.30;6.25;;;8.10;99.90;;;;;;4934992;28;20078;-74
2022/03/11 12:27:59;;;;;;;23.55;6.07;;;8.10;99.90;;;;;;4923329;29;20059;-74
2022/03/11 12:30:26;;;;;;;10.30;7.85;;;8.10;99.90;;;;;;4925500;29;20126;-74
2022/03/11 12:32:52;;;;;;;13.00;7.10;;;8.10;99.90;;;;;;4927725;28;20050;-74
2022/03/11 12:35:19;;;;;;;9.95;7.07;;;8.20;99.90;;;;;;4945520;28;20082;-76
2022/03/11 12:37:45;;;;;;;13.38;6.95;;;8.20;99.90;;;;;;4943816;28;20126;-75
2022/03/11 12:40:11;;;;;;;5.22;4.72;;;8.20;99.90;;;;;;4933325;28;20118;-75
2022/03/11 12:42:38;;;;;;;8.55;6.50;;;8.20;99.90;;;;;;4955122;28;20516;-75
2022/03/11 12:45:04;;;;;;;9.70;7.32;;;8.20;99.90;;;;;;4953828;28;20102;-76
2022/03/11 12:47:37;;;;;;;10.70;6.85;;;8.30;99.90;;;;;;4944629;28;20047;-76
2022/03/11 12:50:06;;;;;;;9.25;6.72;;;8.30;99.90;;;;;;4939460;28;20055;-76
2022/03/11 12:52:37;;;;;;;7.93;6.47;;;8.40;99.90;;;;;;4926272;29;20507;-76
2022/03/11 12:55:30;;;;;;;12.13;7.28;;;8.40;99.90;;;;;;4926106;29;20078;-76
2022/03/11 12:57:59;;;;;;;10.27;7.65;;;8.40;99.90;;;;;;4923556;29;20039;-76